Anchorage/Lake Hood Seaplane Base, Alaska
Current Conditions -  °F | °C
As of 8:53 PM on Friday 28 Nov 2014 (Local Time) from PALH Reporting Station
Overcast Overcast  
Wind Chill: -10°   Ceiling: 5500
Heat Index: -5°   Visibility: 10mi
Dew Point: -11°   Wind: 7mph
Humidity: 65%   Direction: 10°N
Pressure: 30.17"   Gusts: NA
Location:  61.18°N, 149.97°W
Report Text: PALH 290553Z 01006KT 10SM SCT047 OVC055 M05/M11 A3017 RMK AO2 SLP217 T10501106 11050 21050 58004
Loading
Personal Weather Stations






























Interactive Weather Map New forecast layout! Learn more

10-Day Weather Forecast

Advertisements
Track Severe Weather on mobile